Roque Gonzales, Brazil
Current Conditions -  °F | °C
As of 7:00 PM on Friday 19 Dec 2014 (Local Time) from SARP Reporting Station
Few Clouds Few Clouds  
Wind Chill: 91°   Ceiling: Unl
Heat Index: 93°   Visibility: 6mi
Dew Point: 64°   Wind: 2mph
Humidity: 41%   Direction: 230°SW
Pressure: 29.65"   Gusts: NA
Location:  28.13°S, 55.03°W
Report Text: SARP 192100Z 23002KT 9999 FEW035 33/18 Q1004
Loading
Personal Weather Stations






























Interactive Weather Map New forecast layout! Learn more

10-Day Weather Forecast

Advertisements
Track Severe Weather on mobile